createdAt,value
2018-05-11T00:01:25.750Z,10.87
2018-05-11T00:02:25.811Z,10.92
2018-05-11T00:04:18.804Z,10.89
2018-05-11T00:05:18.856Z,10.90
2018-05-11T00:07:11.865Z,10.89
2018-05-11T00:08:11.898Z,10.84
2018-05-11T00:10:04.883Z,10.81
2018-05-11T00:11:04.942Z,10.75
2018-05-11T00:12:57.936Z,10.67
2018-05-11T00:13:57.990Z,10.69
2018-05-11T00:15:50.971Z,10.68
2018-05-11T00:16:51.030Z,10.64
2018-05-11T00:18:44.028Z,10.68
2018-05-11T00:19:44.081Z,10.63
2018-05-11T00:21:37.064Z,10.67
2018-05-11T00:22:37.205Z,10.67
2018-05-11T00:24:30.117Z,10.63
2018-05-11T00:25:30.168Z,10.60
2018-05-11T00:27:23.179Z,10.56
2018-05-11T00:28:23.214Z,10.54
2018-05-11T00:30:16.197Z,10.51
2018-05-11T00:31:16.256Z,10.44
2018-05-11T00:33:09.251Z,10.44
2018-05-11T00:34:09.300Z,10.30
2018-05-11T00:36:02.282Z,10.34
2018-05-11T00:37:02.344Z,10.35
2018-05-11T00:38:55.340Z,10.33
2018-05-11T00:39:55.393Z,10.13
2018-05-11T00:41:48.375Z,10.30
2018-05-11T00:42:48.436Z,10.25
2018-05-11T00:44:41.428Z,10.26
2018-05-11T00:45:41.480Z,10.30
2018-05-11T00:47:34.473Z,10.26
2018-05-11T00:48:34.523Z,10.26
2018-05-11T00:50:27.505Z,10.16
2018-05-11T00:51:27.567Z,10.17
2018-05-11T00:53:20.563Z,9.95
2018-05-11T00:54:20.613Z,9.91
2018-05-11T00:56:13.596Z,9.79
2018-05-11T00:57:13.657Z,9.72
2018-05-11T00:59:06.658Z,9.73
2018-05-11T01:00:06.701Z,9.73
2018-05-11T01:01:59.685Z,9.64
2018-05-11T01:02:59.749Z,9.72
2018-05-11T01:04:52.740Z,9.69
2018-05-11T01:05:52.789Z,9.73
2018-05-11T01:07:45.803Z,9.87
2018-05-11T01:08:45.837Z,9.89
2018-05-11T01:10:38.816Z,9.98
2018-05-11T01:11:38.874Z,9.99
2018-05-11T01:13:31.867Z,9.91
2018-05-11T01:14:31.920Z,9.87
2018-05-11T01:16:24.905Z,9.84
2018-05-11T01:17:24.964Z,9.91
2018-05-11T01:19:17.956Z,9.80
2018-05-11T01:20:18.007Z,9.77
2018-05-11T01:22:10.991Z,9.80
2018-05-11T01:23:11.054Z,9.77
2018-05-11T01:25:04.042Z,9.73
2018-05-11T01:26:04.092Z,9.76
2018-05-11T01:27:57.094Z,9.86
2018-05-11T01:28:57.137Z,9.76
2018-05-11T01:30:50.127Z,9.72
2018-05-11T01:31:50.183Z,9.73
2018-05-11T01:33:43.181Z,9.74
2018-05-11T01:34:43.231Z,9.68
2018-05-11T01:36:36.219Z,9.73
2018-05-11T01:37:36.275Z,9.74
2018-05-11T01:39:29.268Z,9.80
2018-05-11T01:40:29.320Z,9.87
2018-05-11T01:42:22.811Z,9.92
2018-05-11T01:43:22.870Z,9.87
2018-05-11T01:45:15.870Z,9.91
2018-05-11T01:46:15.918Z,9.79
2018-05-11T01:48:08.922Z,9.73
2018-05-11T01:49:08.957Z,9.72
2018-05-11T01:51:01.941Z,9.65
2018-05-11T01:52:02.000Z,9.64
2018-05-11T01:53:54.990Z,9.64
2018-05-11T01:54:55.042Z,9.59
2018-05-11T01:56:50.553Z,9.62
2018-05-11T01:57:48.085Z,9.59
2018-05-11T01:59:41.085Z,9.59
2018-05-11T02:00:41.130Z,9.54
2018-05-11T02:02:34.113Z,9.77
2018-05-11T02:03:34.173Z,9.69
2018-05-11T02:05:27.166Z,9.77
2018-05-11T02:06:27.215Z,9.76
2018-05-11T02:08:20.217Z,9.74
2018-05-11T02:09:20.257Z,9.72
2018-05-11T02:11:13.241Z,9.74
2018-05-11T02:12:13.301Z,9.69
2018-05-11T02:14:06.294Z,9.66
2018-05-11T02:15:06.346Z,9.74
2018-05-11T02:16:59.329Z,9.69
2018-05-11T02:17:59.389Z,9.64
2018-05-11T02:19:52.382Z,9.72
2018-05-11T02:20:52.430Z,9.72
2018-05-11T02:22:45.418Z,9.72
2018-05-11T02:23:45.478Z,9.65
2018-05-11T02:25:38.466Z,9.61
2018-05-11T02:26:38.517Z,9.59
2018-05-11T02:28:31.514Z,9.59
2018-05-11T02:29:31.562Z,9.58
2018-05-11T02:31:24.543Z,9.51
2018-05-11T02:32:24.604Z,9.58
2018-05-11T02:34:17.598Z,9.58
2018-05-11T02:35:17.651Z,9.50
2018-05-11T02:37:10.634Z,9.61
2018-05-11T02:38:10.691Z,9.48
2018-05-11T02:40:03.684Z,9.62
2018-05-11T02:41:03.735Z,9.64
2018-05-11T02:42:57.219Z,9.62
2018-05-11T02:43:57.283Z,9.59
2018-05-11T02:45:50.275Z,9.65
2018-05-11T02:46:50.329Z,9.58
2018-05-11T02:48:43.334Z,9.62
2018-05-11T02:49:43.374Z,9.66
2018-05-11T02:51:36.354Z,9.51
2018-05-11T02:52:36.415Z,9.58
2018-05-11T02:54:29.409Z,9.73
2018-05-11T02:55:29.461Z,9.73
2018-05-11T02:57:22.448Z,9.65
2018-05-11T02:58:22.508Z,9.74
2018-05-11T03:00:15.511Z,9.73
2018-05-11T03:01:15.557Z,9.76
2018-05-11T03:03:08.544Z,9.68
2018-05-11T03:04:08.603Z,9.72
2018-05-11T03:06:01.617Z,9.65
2018-05-11T03:07:01.669Z,9.56
2018-05-11T03:08:54.718Z,9.46
2018-05-11T03:09:54.711Z,9.43
2018-05-11T03:11:47.691Z,9.41
2018-05-11T03:12:47.752Z,9.43
2018-05-11T03:14:40.743Z,9.40
2018-05-11T03:15:40.795Z,9.50
2018-05-11T03:17:33.780Z,9.47
2018-05-11T03:18:33.908Z,9.43
2018-05-11T03:20:26.833Z,9.39
2018-05-11T03:21:26.885Z,9.34
2018-05-11T03:23:19.875Z,9.34
2018-05-11T03:24:19.935Z,9.40
2018-05-11T03:26:12.929Z,9.41
2018-05-11T03:27:12.975Z,9.40
2018-05-11T03:29:05.988Z,9.37
2018-05-11T03:30:06.024Z,9.36
2018-05-11T03:31:59.005Z,9.40
2018-05-11T03:32:59.065Z,9.31
2018-05-11T03:34:52.059Z,9.34
2018-05-11T03:35:52.108Z,9.34
2018-05-11T03:37:45.090Z,9.43
2018-05-11T03:38:45.152Z,9.41
2018-05-11T03:40:38.144Z,9.48
2018-05-11T03:41:38.193Z,9.56
2018-05-11T03:43:31.177Z,9.59
2018-05-11T03:44:31.238Z,9.62
2018-05-11T03:46:24.228Z,9.72
2018-05-11T03:47:24.278Z,9.68
2018-05-11T03:49:17.277Z,9.79
2018-05-11T03:50:17.320Z,9.92
2018-05-11T03:52:10.305Z,10.01
2018-05-11T03:53:10.364Z,9.98
2018-05-11T03:55:03.356Z,10.04
2018-05-11T03:56:03.408Z,10.09
2018-05-11T03:57:56.391Z,10.12
2018-05-11T03:58:56.450Z,10.16
2018-05-11T04:00:49.443Z,10.13
2018-05-11T04:01:49.499Z,10.22
2018-05-11T04:03:42.494Z,10.26
2018-05-11T04:04:42.555Z,10.26
2018-05-11T04:06:35.634Z,10.25
2018-05-11T04:07:35.606Z,10.33
2018-05-11T04:09:28.620Z,10.30
2018-05-11T04:10:28.650Z,10.30
2018-05-11T04:12:21.635Z,10.28
2018-05-11T04:13:21.696Z,10.26
2018-05-11T04:15:14.694Z,10.31
2018-05-11T04:16:14.747Z,10.28
2018-05-11T04:18:07.735Z,10.23
2018-05-11T04:19:07.793Z,10.25
2018-05-11T04:21:00.786Z,10.37
2018-05-11T04:22:00.838Z,10.38
2018-05-11T04:23:53.828Z,10.53
2018-05-11T04:24:53.906Z,10.40
2018-05-11T04:26:46.885Z,10.53
2018-05-11T04:27:46.932Z,10.38
2018-05-11T04:29:39.945Z,10.54
2018-05-11T04:30:39.981Z,10.48
2018-05-11T04:32:32.960Z,10.49
2018-05-11T04:33:33.023Z,10.53
2018-05-11T04:35:26.013Z,10.56
2018-05-11T04:36:26.064Z,10.54
2018-05-11T04:38:19.057Z,10.67
2018-05-11T04:39:19.115Z,10.63
2018-05-11T04:41:12.113Z,10.68
2018-05-11T04:42:12.160Z,10.64
2018-05-11T04:44:05.145Z,10.74
2018-05-11T04:45:05.205Z,10.74
2018-05-11T04:46:58.203Z,10.64
2018-05-11T04:47:58.269Z,10.63
2018-05-11T04:49:51.249Z,10.74
2018-05-11T04:50:51.295Z,10.79
2018-05-11T04:52:44.282Z,10.75
2018-05-11T04:53:44.368Z,10.68
2018-05-11T04:55:37.333Z,10.69
2018-05-11T04:56:37.387Z,10.67
2018-05-11T04:58:30.375Z,10.64
2018-05-11T04:59:30.436Z,10.68
2018-05-11T05:01:23.424Z,10.59
2018-05-11T05:02:23.480Z,10.63
2018-05-11T05:04:16.464Z,10.60
2018-05-11T05:05:16.523Z,10.51
2018-05-11T05:07:09.516Z,10.74
2018-05-11T05:08:09.567Z,10.78
2018-05-11T05:10:02.577Z,10.99
2018-05-11T05:11:02.620Z,11.05
2018-05-11T05:12:56.108Z,11.19
2018-05-11T05:13:56.167Z,11.19
2018-05-11T05:15:49.162Z,11.19
2018-05-11T05:16:49.211Z,11.29
2018-05-11T05:18:42.196Z,11.40
2018-05-11T05:19:42.256Z,11.50
2018-05-11T05:21:35.247Z,11.60
2018-05-11T05:22:35.300Z,11.62
2018-05-11T05:24:28.288Z,11.91
2018-05-11T05:25:28.350Z,11.87
2018-05-11T05:27:21.366Z,11.99
2018-05-11T05:28:21.396Z,12.03
2018-05-11T05:30:14.388Z,11.95
2018-05-11T05:31:14.438Z,11.95
2018-05-11T05:33:07.439Z,11.97
2018-05-11T05:34:07.488Z,12.03
2018-05-11T05:36:00.480Z,12.12
2018-05-11T05:37:00.535Z,12.12
2018-05-11T05:38:53.517Z,12.13
2018-05-11T05:39:53.578Z,12.04
2018-05-11T05:41:46.571Z,12.04
2018-05-11T05:42:46.624Z,12.06
2018-05-11T05:44:39.622Z,12.27
2018-05-11T05:45:39.684Z,12.43
2018-05-11T05:47:32.676Z,12.73
2018-05-11T05:48:32.730Z,12.79
2018-05-11T05:50:25.743Z,13.00
2018-05-11T05:51:25.782Z,13.16
2018-05-11T05:53:18.769Z,13.20
2018-05-11T05:54:18.829Z,13.31
2018-05-11T05:56:11.829Z,13.42
2018-05-11T05:57:11.877Z,13.49
2018-05-11T05:59:04.864Z,13.13
2018-05-11T06:00:04.924Z,13.12
2018-05-11T06:01:57.922Z,13.03
2018-05-11T06:02:57.973Z,13.22
2018-05-11T06:04:50.967Z,13.27
2018-05-11T06:05:51.023Z,13.27
2018-05-11T06:07:44.019Z,13.27
2018-05-11T06:08:44.073Z,13.11
2018-05-11T06:10:37.061Z,13.11
2018-05-11T06:11:37.122Z,13.16
2018-05-11T06:13:30.118Z,13.38
2018-05-11T06:14:30.169Z,13.38
2018-05-11T06:16:23.234Z,13.11
2018-05-11T06:17:23.221Z,13.08
2018-05-11T06:19:16.221Z,13.09
2018-05-11T06:20:16.272Z,13.23
2018-05-11T06:22:09.309Z,13.16
2018-05-11T06:23:09.410Z,13.15
2018-05-11T06:25:02.363Z,13.25
2018-05-11T06:26:02.419Z,13.30
2018-05-11T06:27:55.408Z,13.57
2018-05-11T06:28:55.456Z,13.67
2018-05-11T06:30:48.445Z,13.71
2018-05-11T06:31:48.506Z,13.74
2018-05-11T06:33:41.510Z,13.56
2018-05-11T06:34:41.562Z,13.56
2018-05-11T06:36:34.546Z,13.60
2018-05-11T06:37:34.611Z,13.53
2018-05-11T06:39:27.606Z,13.44
2018-05-11T06:40:27.822Z,13.44
2018-05-11T06:42:20.647Z,13.53
2018-05-11T06:43:20.775Z,13.70
2018-05-11T06:45:13.702Z,13.65
2018-05-11T06:46:13.755Z,13.85
2018-05-11T06:48:06.763Z,13.78
2018-05-11T06:49:06.817Z,13.77
2018-05-11T06:50:59.809Z,13.49
2018-05-11T06:51:59.872Z,13.68
2018-05-11T06:53:52.879Z,14.04
2018-05-11T06:54:52.939Z,14.14
2018-05-11T06:56:45.919Z,14.04
2018-05-11T06:57:45.981Z,13.74
2018-05-11T06:59:38.989Z,13.52
2018-05-11T07:00:39.041Z,13.68
2018-05-11T07:02:32.036Z,13.62
2018-05-11T07:03:32.100Z,13.78
2018-05-11T07:05:25.104Z,13.72
2018-05-11T07:06:25.157Z,13.71
2018-05-11T07:08:18.163Z,13.89
2018-05-11T07:09:18.221Z,13.96
2018-05-11T07:11:11.713Z,13.96
2018-05-11T07:12:11.771Z,13.93
2018-05-11T07:14:04.771Z,13.89
2018-05-11T07:15:04.823Z,13.95
2018-05-11T07:16:57.810Z,13.97
2018-05-11T07:17:57.874Z,13.93
2018-05-11T07:19:50.898Z,13.95
2018-05-11T07:20:50.952Z,14.03
2018-05-11T07:22:43.943Z,14.07
2018-05-11T07:23:44.005Z,14.15
2018-05-11T07:25:37.097Z,14.30
2018-05-11T07:26:37.058Z,14.40
2018-05-11T07:28:30.054Z,15.03
2018-05-11T07:29:30.109Z,14.86
2018-05-11T07:31:23.115Z,15.04
2018-05-11T07:32:23.167Z,15.06
2018-05-11T07:34:16.165Z,15.03
2018-05-11T07:35:16.218Z,15.06
2018-05-11T07:37:09.207Z,14.72
2018-05-11T07:38:09.270Z,14.85
2018-05-11T07:40:02.273Z,14.81
2018-05-11T07:41:02.322Z,14.81
2018-05-11T07:42:55.318Z,14.92
2018-05-11T07:43:55.382Z,15.15
2018-05-11T07:45:48.384Z,15.46
2018-05-11T07:46:48.436Z,15.57
2018-05-11T07:48:41.425Z,15.67
2018-05-11T07:49:41.488Z,15.61
2018-05-11T07:51:34.492Z,15.42
2018-05-11T07:52:34.542Z,15.24
2018-05-11T07:54:27.545Z,15.21
2018-05-11T07:55:27.602Z,15.37
2018-05-11T07:57:20.590Z,15.77
2018-05-11T07:58:20.658Z,16.05
2018-05-11T08:00:13.655Z,15.97
2018-05-11T08:01:13.713Z,15.72
2018-05-11T08:03:06.699Z,15.25
2018-05-11T08:04:06.764Z,15.25
2018-05-11T08:05:59.764Z,15.17
2018-05-11T08:06:59.823Z,15.25
2018-05-11T08:08:52.809Z,14.97
2018-05-11T08:09:52.869Z,14.84
2018-05-11T08:11:46.385Z,14.94
2018-05-11T08:12:46.430Z,15.07
2018-05-11T08:14:39.435Z,15.17
2018-05-11T08:15:39.486Z,15.22
2018-05-11T08:17:32.475Z,15.58
2018-05-11T08:18:32.539Z,15.73
2018-05-11T08:20:25.541Z,15.98
2018-05-11T08:21:25.601Z,16.24
2018-05-11T08:23:18.595Z,16.86
2018-05-11T08:24:18.661Z,17.19
2018-05-11T08:26:11.655Z,18.60
2018-05-11T08:27:11.710Z,20.21
2018-05-11T08:29:04.713Z,22.70
2018-05-11T08:30:04.769Z,24.16
2018-05-11T08:31:57.779Z,25.62
2018-05-11T08:32:57.833Z,24.51
2018-05-11T08:34:50.838Z,22.69
2018-05-11T08:35:50.999Z,21.72
2018-05-11T08:37:43.918Z,20.31
2018-05-11T08:38:43.977Z,19.86
2018-05-11T08:40:36.990Z,18.99
2018-05-11T08:41:37.050Z,18.88
2018-05-11T08:43:30.059Z,18.60
2018-05-11T08:44:30.141Z,18.22
2018-05-11T08:46:23.153Z,17.34
2018-05-11T08:47:23.197Z,16.99
2018-05-11T08:49:16.199Z,17.23
2018-05-11T08:50:16.268Z,17.16
2018-05-11T08:52:09.285Z,16.93
2018-05-11T08:53:09.337Z,16.57
2018-05-11T08:55:02.337Z,15.91
2018-05-11T08:56:02.401Z,16.17
2018-05-11T08:57:55.412Z,16.75
2018-05-11T08:58:55.466Z,16.56
2018-05-11T09:00:48.472Z,16.32
2018-05-11T09:01:48.528Z,16.36
2018-05-11T09:03:41.527Z,16.76
2018-05-11T09:04:41.590Z,16.96
2018-05-11T09:06:34.597Z,16.83
2018-05-11T09:07:34.654Z,17.01
2018-05-11T09:09:27.649Z,16.81
2018-05-11T09:10:27.718Z,16.75
2018-05-11T09:12:20.725Z,18.05
2018-05-11T09:13:20.784Z,19.71
2018-05-11T09:15:13.780Z,20.75
2018-05-11T09:16:13.844Z,20.65
2018-05-11T09:18:06.846Z,20.11
2018-05-11T09:19:06.999Z,20.39
2018-05-11T09:20:59.925Z,20.21
2018-05-11T09:22:00.012Z,19.88
2018-05-11T09:23:52.988Z,18.83
2018-05-11T09:24:53.057Z,18.23
2018-05-11T09:26:46.070Z,17.41
2018-05-11T09:27:46.181Z,17.64
2018-05-11T09:29:39.129Z,17.39
2018-05-11T09:30:39.233Z,17.33
2018-05-11T09:32:32.226Z,17.24
2018-05-11T09:33:32.265Z,17.46
2018-05-11T09:35:25.265Z,17.80
2018-05-11T09:36:25.329Z,17.63
2018-05-11T09:38:18.332Z,17.64
2018-05-11T09:39:18.394Z,17.39
2018-05-11T09:41:11.400Z,17.44
2018-05-11T09:42:11.458Z,16.93
2018-05-11T09:44:04.456Z,17.04
2018-05-11T09:45:04.518Z,17.29
2018-05-11T09:46:57.577Z,17.92
2018-05-11T09:47:57.577Z,18.23
2018-05-11T09:49:50.571Z,17.65
2018-05-11T09:50:50.639Z,17.63
2018-05-11T09:52:43.640Z,17.38
2018-05-11T09:53:43.699Z,17.44
2018-05-11T09:55:36.700Z,17.86
2018-05-11T09:56:36.755Z,18.04
2018-05-11T09:58:29.762Z,18.01
2018-05-11T09:59:29.816Z,17.63
2018-05-11T10:01:22.825Z,17.23
2018-05-11T10:02:22.912Z,17.34
2018-05-11T10:04:15.882Z,17.44
2018-05-11T10:05:15.974Z,17.65
2018-05-11T10:07:09.017Z,17.76
2018-05-11T10:08:09.005Z,18.07
2018-05-11T10:10:02.009Z,18.66
2018-05-11T10:11:02.093Z,18.90
2018-05-11T10:12:55.071Z,19.40
2018-05-11T10:13:55.155Z,19.54
2018-05-11T10:15:48.117Z,18.98
2018-05-11T10:16:48.182Z,18.38
2018-05-11T10:18:41.190Z,18.37
2018-05-11T10:19:41.292Z,18.47
2018-05-11T10:21:34.248Z,18.66
2018-05-11T10:22:34.304Z,18.93
2018-05-11T10:24:27.296Z,19.09
2018-05-11T10:25:27.363Z,19.07
2018-05-11T10:27:20.369Z,19.19
2018-05-11T10:28:20.423Z,19.08
2018-05-11T10:30:13.418Z,18.77
2018-05-11T10:31:13.488Z,18.56
2018-05-11T10:33:06.488Z,17.92
2018-05-11T10:34:06.543Z,17.92
2018-05-11T10:36:00.055Z,18.38
2018-05-11T10:37:00.170Z,18.58
2018-05-11T10:38:53.117Z,18.92
2018-05-11T10:39:53.268Z,18.89
2018-05-11T10:41:46.173Z,18.70
2018-05-11T10:42:46.232Z,18.93
2018-05-11T10:44:39.225Z,18.96
2018-05-11T10:45:39.294Z,19.09
2018-05-11T10:47:32.294Z,19.19
2018-05-11T10:48:32.389Z,19.29
2018-05-11T10:50:25.349Z,19.24
2018-05-11T10:51:25.417Z,19.11
2018-05-11T10:53:18.421Z,18.84
2018-05-11T10:54:18.475Z,18.84
2018-05-11T10:56:11.471Z,19.14
2018-05-11T10:57:11.776Z,19.09
2018-05-11T10:59:04.548Z,19.22
2018-05-11T11:00:04.599Z,18.99
2018-05-11T11:01:57.609Z,19.04
2018-05-11T11:02:57.665Z,18.99
2018-05-11T11:04:50.658Z,19.08
2018-05-11T11:05:50.723Z,19.11
2018-05-11T11:07:43.729Z,19.14
2018-05-11T11:08:43.784Z,19.00
2018-05-11T11:10:36.813Z,18.78
2018-05-11T11:11:36.845Z,18.78
2018-05-11T11:13:29.926Z,18.74
2018-05-11T11:14:29.905Z,18.88
2018-05-11T11:16:22.909Z,18.73
2018-05-11T11:17:22.971Z,18.41
2018-05-11T11:19:15.974Z,18.43
2018-05-11T11:20:16.029Z,18.62
2018-05-11T11:22:09.562Z,18.44
2018-05-11T11:23:09.605Z,18.35
2018-05-11T11:25:02.592Z,18.70
2018-05-11T11:26:02.676Z,18.78
2018-05-11T11:27:55.665Z,18.68
2018-05-11T11:28:55.714Z,18.88
2018-05-11T11:30:49.220Z,18.66
2018-05-11T11:31:49.280Z,18.71
2018-05-11T11:33:42.283Z,18.34
2018-05-11T11:34:42.380Z,18.28
2018-05-11T11:36:35.336Z,18.15
2018-05-11T11:37:35.399Z,18.19
2018-05-11T11:39:28.401Z,18.40
2018-05-11T11:40:28.458Z,18.56
2018-05-11T11:42:21.477Z,18.60
2018-05-11T11:43:21.516Z,18.33
2018-05-11T11:45:14.511Z,18.00
2018-05-11T11:46:14.573Z,18.13
2018-05-11T11:48:07.582Z,17.94
2018-05-11T11:49:07.637Z,18.00
2018-05-11T11:51:00.632Z,18.26
2018-05-11T11:52:00.697Z,18.25
2018-05-11T11:53:53.696Z,18.35
2018-05-11T11:54:53.752Z,18.37
2018-05-11T11:56:46.756Z,18.33
2018-05-11T11:57:46.853Z,18.55
2018-05-11T11:59:39.817Z,18.66
2018-05-11T12:00:39.873Z,18.70
2018-05-11T12:02:32.867Z,18.71
2018-05-11T12:03:32.928Z,18.74
2018-05-11T12:05:25.930Z,18.73
2018-05-11T12:06:25.986Z,18.80
2018-05-11T12:08:18.985Z,18.90
2018-05-11T12:09:19.118Z,18.88
2018-05-11T12:11:12.044Z,18.88
2018-05-11T12:12:12.094Z,18.98
2018-05-11T12:14:05.100Z,19.02
2018-05-11T12:15:05.153Z,19.00
2018-05-11T12:16:58.157Z,18.93
2018-05-11T12:17:58.210Z,18.73
2018-05-11T12:19:51.236Z,18.78
2018-05-11T12:20:51.282Z,18.83
2018-05-11T12:22:44.265Z,18.73
2018-05-11T12:23:44.327Z,18.74
2018-05-11T12:25:37.329Z,18.78
2018-05-11T12:26:37.383Z,18.86
2018-05-11T12:28:30.387Z,18.92
2018-05-11T12:29:30.443Z,18.88
2018-05-11T12:31:23.436Z,18.89
2018-05-11T12:32:23.503Z,18.90
2018-05-11T12:34:16.500Z,19.09
2018-05-11T12:35:16.554Z,19.12
2018-05-11T12:37:09.549Z,18.88
2018-05-11T12:38:09.616Z,18.98
2018-05-11T12:40:02.664Z,18.84
2018-05-11T12:41:02.771Z,18.70
2018-05-11T12:42:55.664Z,18.63
2018-05-11T12:43:55.731Z,18.52
2018-05-11T12:45:48.730Z,18.70
2018-05-11T12:46:48.786Z,18.70
2018-05-11T12:48:41.798Z,18.81
2018-05-11T12:49:41.840Z,18.66
2018-05-11T12:51:34.838Z,18.71
2018-05-11T12:52:34.897Z,18.81
2018-05-11T12:54:27.904Z,18.96
2018-05-11T12:55:27.957Z,18.98
2018-05-11T12:57:21.007Z,18.81
2018-05-11T12:58:21.068Z,18.86
2018-05-11T13:00:14.067Z,18.89
2018-05-11T13:01:14.120Z,19.04
2018-05-11T13:03:07.126Z,19.02
2018-05-11T13:04:07.191Z,18.98
2018-05-11T13:06:00.198Z,19.04
2018-05-11T13:07:00.252Z,19.07
2018-05-11T13:08:53.252Z,19.12
2018-05-11T13:09:53.308Z,19.22
2018-05-11T13:11:46.302Z,19.33
2018-05-11T13:12:46.397Z,19.33
2018-05-11T13:14:39.369Z,19.34
2018-05-11T13:15:39.426Z,19.36
2018-05-11T13:17:32.422Z,19.47
2018-05-11T13:18:32.489Z,19.44
2018-05-11T13:20:25.563Z,19.44
2018-05-11T13:21:25.540Z,19.56
2018-05-11T13:23:18.533Z,19.47
2018-05-11T13:24:18.597Z,19.51
2018-05-11T13:26:11.622Z,19.31
2018-05-11T13:27:11.656Z,19.54
2018-05-11T13:29:04.664Z,19.54
2018-05-11T13:30:04.717Z,19.34
2018-05-11T13:31:57.706Z,19.49
2018-05-11T13:32:57.783Z,19.44
2018-05-11T13:34:50.778Z,19.54
2018-05-11T13:35:50.889Z,19.59
2018-05-11T13:37:43.820Z,19.56
2018-05-11T13:38:43.885Z,19.55
2018-05-11T13:40:36.885Z,19.66
2018-05-11T13:41:36.986Z,19.73
2018-05-11T13:43:29.936Z,19.62
2018-05-11T13:44:29.999Z,19.48
2018-05-11T13:46:23.003Z,19.44
2018-05-11T13:47:23.053Z,19.51
2018-05-11T13:49:16.062Z,19.56
2018-05-11T13:50:16.110Z,19.49
2018-05-11T13:52:09.109Z,19.37
2018-05-11T13:53:09.169Z,19.37
2018-05-11T13:55:02.180Z,19.34
2018-05-11T13:56:02.238Z,19.19
2018-05-11T13:57:55.227Z,19.34
2018-05-11T13:58:55.291Z,19.39
2018-05-11T14:00:48.293Z,19.63
2018-05-11T14:01:48.348Z,19.49
2018-05-11T14:03:41.342Z,19.54
2018-05-11T14:04:41.444Z,19.56
2018-05-11T14:06:34.408Z,19.55
2018-05-11T14:07:34.462Z,19.59
2018-05-11T14:09:27.475Z,19.54
2018-05-11T14:10:27.530Z,19.70
2018-05-11T14:12:21.033Z,19.86
2018-05-11T14:13:21.096Z,19.95
2018-05-11T14:15:14.100Z,19.92
2018-05-11T14:16:14.156Z,19.69
2018-05-11T14:18:07.155Z,19.56
2018-05-11T14:19:07.212Z,19.56
2018-05-11T14:21:00.212Z,19.58
2018-05-11T14:22:00.267Z,19.67
2018-05-11T14:23:53.262Z,19.74
2018-05-11T14:24:53.331Z,19.88
2018-05-11T14:26:46.328Z,19.99
2018-05-11T14:27:46.381Z,19.96
2018-05-11T14:29:39.388Z,19.95
2018-05-11T14:30:39.441Z,19.88
2018-05-11T14:32:32.446Z,19.79
2018-05-11T14:33:32.499Z,19.73
2018-05-11T14:35:25.563Z,19.77
2018-05-11T14:36:25.554Z,19.81
2018-05-11T14:38:18.551Z,19.89
2018-05-11T14:39:18.677Z,19.84
2018-05-11T14:41:11.654Z,19.76
2018-05-11T14:42:11.673Z,19.77
2018-05-11T14:44:04.662Z,19.86
2018-05-11T14:45:04.729Z,19.92
2018-05-11T14:46:57.729Z,19.96
2018-05-11T14:47:57.781Z,19.85
2018-05-11T14:49:50.788Z,19.86
2018-05-11T14:50:50.843Z,19.95
2018-05-11T14:52:43.890Z,19.86
2018-05-11T14:53:43.901Z,19.94
2018-05-11T14:55:36.899Z,19.74
2018-05-11T14:56:36.950Z,19.79
2018-05-11T14:58:29.950Z,19.85
2018-05-11T14:59:30.020Z,19.89
2018-05-11T15:01:23.020Z,20.06
2018-05-11T15:02:23.071Z,20.06
2018-05-11T15:04:16.192Z,20.04
2018-05-11T15:05:16.129Z,19.86
2018-05-11T15:07:09.133Z,20.00
2018-05-11T15:08:09.187Z,19.91
2018-05-11T15:10:02.262Z,19.81
2018-05-11T15:11:02.245Z,19.79
2018-05-11T15:12:55.235Z,19.77
2018-05-11T15:13:55.297Z,19.69
2018-05-11T15:15:48.307Z,19.76
2018-05-11T15:16:48.365Z,19.73
2018-05-11T15:18:41.360Z,19.77
2018-05-11T15:19:41.426Z,19.77
2018-05-11T15:21:34.423Z,19.67
2018-05-11T15:22:34.480Z,19.74
2018-05-11T15:24:27.476Z,19.70
2018-05-11T15:25:27.542Z,19.59
2018-05-11T15:27:20.554Z,19.74
2018-05-11T15:28:20.612Z,19.77
2018-05-11T15:30:13.611Z,19.86
2018-05-11T15:31:13.680Z,19.82
2018-05-11T15:33:06.656Z,19.91
2018-05-11T15:34:06.720Z,19.94
2018-05-11T15:35:59.720Z,19.94
2018-05-11T15:36:59.774Z,19.86
2018-05-11T15:38:52.779Z,19.91
2018-05-11T15:39:52.831Z,19.92
2018-05-11T15:41:45.834Z,19.95
2018-05-11T15:42:45.889Z,19.92
2018-05-11T15:44:38.898Z,19.96
2018-05-11T15:45:38.947Z,19.95
2018-05-11T15:47:31.953Z,20.00
2018-05-11T15:48:32.010Z,19.99
2018-05-11T15:50:25.012Z,20.04
2018-05-11T15:51:25.064Z,19.99
2018-05-11T15:53:18.057Z,20.04
2018-05-11T15:54:18.123Z,19.91
2018-05-11T15:56:11.123Z,19.95
2018-05-11T15:57:11.178Z,19.96
2018-05-11T15:59:04.214Z,20.02
2018-05-11T16:00:04.233Z,19.96
2018-05-11T16:01:57.236Z,19.81
2018-05-11T16:02:57.291Z,19.86
2018-05-11T16:04:50.286Z,19.91
2018-05-11T16:05:50.411Z,19.92
2018-05-11T16:07:43.351Z,19.95
2018-05-11T16:08:43.407Z,20.00
2018-05-11T16:10:36.409Z,19.94
2018-05-11T16:11:36.463Z,19.91
2018-05-11T16:13:29.457Z,19.82
2018-05-11T16:14:29.523Z,19.81
2018-05-11T16:16:22.524Z,19.81
2018-05-11T16:17:22.578Z,19.84
2018-05-11T16:19:15.572Z,19.88
2018-05-11T16:20:15.643Z,19.94
2018-05-11T16:22:08.642Z,19.95
2018-05-11T16:23:08.699Z,19.95
2018-05-11T16:25:01.693Z,19.94
2018-05-11T16:26:01.747Z,19.91
2018-05-11T16:27:54.756Z,19.92
2018-05-11T16:28:54.816Z,19.81
2018-05-11T16:30:47.814Z,19.96
2018-05-11T16:31:47.875Z,19.95
2018-05-11T16:33:40.861Z,19.96
2018-05-11T16:34:40.928Z,20.02
2018-05-11T16:36:33.931Z,19.99
2018-05-11T16:37:33.986Z,20.07
2018-05-11T16:39:27.026Z,19.96
2018-05-11T16:40:27.126Z,19.89
2018-05-11T16:42:20.094Z,19.86
2018-05-11T16:43:20.149Z,19.91
2018-05-11T16:45:13.655Z,19.85
2018-05-11T16:46:13.718Z,19.91
2018-05-11T16:48:06.733Z,19.95
2018-05-11T16:49:06.785Z,19.95
2018-05-11T16:50:59.792Z,19.84
2018-05-11T16:51:59.845Z,19.91
2018-05-11T16:53:52.847Z,19.82
2018-05-11T16:54:52.904Z,19.71
2018-05-11T16:56:45.909Z,19.73
2018-05-11T16:57:45.962Z,19.77
2018-05-11T16:59:38.954Z,19.73
2018-05-11T17:00:39.020Z,19.82
2018-05-11T17:02:32.030Z,19.76
2018-05-11T17:03:32.080Z,19.73
2018-05-11T17:05:25.079Z,19.79
2018-05-11T17:06:25.139Z,19.79
2018-05-11T17:08:18.148Z,19.77
2018-05-11T17:09:18.203Z,19.84
2018-05-11T17:11:11.203Z,19.74
2018-05-11T17:12:11.272Z,19.74
2018-05-11T17:14:04.251Z,19.85
2018-05-11T17:15:04.316Z,19.86
2018-05-11T17:16:57.320Z,19.81
2018-05-11T17:17:57.375Z,19.84
2018-05-11T17:19:50.374Z,19.89
2018-05-11T17:20:50.432Z,19.88
2018-05-11T17:22:43.460Z,19.74
2018-05-11T17:23:43.488Z,19.82
2018-05-11T17:25:36.481Z,19.76
2018-05-11T17:26:36.545Z,19.67
2018-05-11T17:28:29.547Z,19.64
2018-05-11T17:29:29.602Z,19.59
2018-05-11T17:31:22.614Z,19.54
2018-05-11T17:32:22.658Z,19.54
2018-05-11T17:34:15.658Z,19.39
2018-05-11T17:35:15.722Z,19.39
2018-05-11T17:37:08.725Z,19.47
2018-05-11T17:38:08.781Z,19.37
2018-05-11T17:40:01.784Z,19.30
2018-05-11T17:41:01.840Z,19.31
2018-05-11T17:42:54.843Z,19.31
2018-05-11T17:43:54.895Z,19.21
2018-05-11T17:45:47.891Z,19.24
2018-05-11T17:46:47.978Z,19.14
2018-05-11T17:48:40.962Z,19.21
2018-05-11T17:49:41.009Z,19.24
2018-05-11T17:51:34.020Z,19.11
2018-05-11T17:52:34.067Z,19.08
2018-05-11T17:54:27.060Z,19.00
2018-05-11T17:55:27.125Z,19.00
2018-05-11T17:57:20.134Z,19.00
2018-05-11T17:58:20.183Z,19.04
2018-05-11T18:00:13.236Z,18.89
2018-05-11T18:01:13.240Z,18.86
2018-05-11T18:03:06.293Z,18.88
2018-05-11T18:04:06.295Z,18.77
2018-05-11T18:05:59.286Z,18.78
2018-05-11T18:06:59.353Z,18.81
2018-05-11T18:08:52.357Z,18.81
2018-05-11T18:09:52.410Z,18.70
2018-05-11T18:11:45.411Z,18.65
2018-05-11T18:12:45.476Z,18.65
2018-05-11T18:14:38.976Z,18.53
2018-05-11T18:15:39.030Z,18.53
2018-05-11T18:17:32.031Z,18.52
2018-05-11T18:18:32.088Z,18.43
2018-05-11T18:20:25.087Z,18.40
2018-05-11T18:21:25.149Z,18.41
2018-05-11T18:23:18.144Z,18.37
2018-05-11T18:24:18.204Z,18.43
2018-05-11T18:26:11.197Z,18.37
2018-05-11T18:27:11.260Z,18.45
2018-05-11T18:29:04.270Z,18.33
2018-05-11T18:30:04.327Z,18.33
2018-05-11T18:31:57.318Z,18.33
2018-05-11T18:32:57.385Z,18.33
2018-05-11T18:34:50.389Z,18.34
2018-05-11T18:35:50.437Z,18.34
2018-05-11T18:37:43.445Z,18.29
2018-05-11T18:38:43.497Z,18.34
2018-05-11T18:40:36.489Z,18.23